sensor_id;sensor_type;location;lat;lon;timestamp;P1;durP1;ratioP1;P2;durP2;ratioP2
56039;SDS011;43937;41.366;2.072;2023-07-09T00:01:17;14.10;;;5.22;;
56039;SDS011;43937;41.366;2.072;2023-07-09T00:03:44;12.68;;;4.90;;
56039;SDS011;43937;41.366;2.072;2023-07-09T00:06:10;19.73;;;5.53;;
56039;SDS011;43937;41.366;2.072;2023-07-09T00:08:38;15.40;;;4.95;;
56039;SDS011;43937;41.366;2.072;2023-07-09T00:11:08;13.48;;;4.38;;
56039;SDS011;43937;41.366;2.072;2023-07-09T00:13:34;12.70;;;5.00;;
56039;SDS011;43937;41.366;2.072;2023-07-09T00:16:00;14.38;;;4.82;;
56039;SDS011;43937;41.366;2.072;2023-07-09T00:18:27;13.77;;;4.97;;
56039;SDS011;43937;41.366;2.072;2023-07-09T00:20:53;13.27;;;5.07;;
56039;SDS011;43937;41.366;2.072;2023-07-09T00:23:18;15.98;;;5.20;;
56039;SDS011;43937;41.366;2.072;2023-07-09T00:25:44;16.70;;;4.60;;
56039;SDS011;43937;41.366;2.072;2023-07-09T00:28:17;14.70;;;4.80;;
56039;SDS011;43937;41.366;2.072;2023-07-09T00:30:46;14.07;;;5.05;;
56039;SDS011;43937;41.366;2.072;2023-07-09T00:33:16;17.55;;;4.82;;
56039;SDS011;43937;41.366;2.072;2023-07-09T00:35:44;12.38;;;4.50;;
56039;SDS011;43937;41.366;2.072;2023-07-09T00:38:17;11.13;;;4.72;;
56039;SDS011;43937;41.366;2.072;2023-07-09T00:43:24;15.85;;;4.88;;
56039;SDS011;43937;41.366;2.072;2023-07-09T00:48:41;16.85;;;5.22;;
56039;SDS011;43937;41.366;2.072;2023-07-09T00:51:11;13.45;;;4.47;;
56039;SDS011;43937;41.366;2.072;2023-07-09T00:53:40;19.13;;;5.18;;
56039;SDS011;43937;41.366;2.072;2023-07-09T00:56:11;12.85;;;5.07;;
56039;SDS011;43937;41.366;2.072;2023-07-09T00:58:39;15.88;;;4.88;;
56039;SDS011;43937;41.366;2.072;2023-07-09T01:01:11;11.25;;;4.22;;
56039;SDS011;43937;41.366;2.072;2023-07-09T01:03:42;13.23;;;4.93;;
56039;SDS011;43937;41.366;2.072;2023-07-09T01:06:10;10.00;;;4.53;;
56039;SDS011;43937;41.366;2.072;2023-07-09T01:08:37;16.75;;;5.10;;
56039;SDS011;43937;41.366;2.072;2023-07-09T01:11:14;16.10;;;5.53;;
56039;SDS011;43937;41.366;2.072;2023-07-09T01:15:16;16.52;;;5.78;;
56039;SDS011;43937;41.366;2.072;2023-07-09T01:17:41;13.68;;;5.15;;
56039;SDS011;43937;41.366;2.072;2023-07-09T01:20:14;15.70;;;5.68;;
56039;SDS011;43937;41.366;2.072;2023-07-09T01:22:41;16.85;;;5.60;;
56039;SDS011;43937;41.366;2.072;2023-07-09T01:25:06;16.85;;;5.57;;
56039;SDS011;43937;41.366;2.072;2023-07-09T01:29:33;12.02;;;5.10;;
56039;SDS011;43937;41.366;2.072;2023-07-09T01:32:00;14.60;;;5.28;;
56039;SDS011;43937;41.366;2.072;2023-07-09T01:34:28;15.13;;;5.30;;
56039;SDS011;43937;41.366;2.072;2023-07-09T01:36:55;15.25;;;5.82;;
56039;SDS011;43937;41.366;2.072;2023-07-09T01:39:21;17.65;;;5.30;;
56039;SDS011;43937;41.366;2.072;2023-07-09T01:41:46;14.80;;;5.57;;
56039;SDS011;43937;41.366;2.072;2023-07-09T01:44:12;14.75;;;5.53;;
56039;SDS011;43937;41.366;2.072;2023-07-09T01:46:39;13.23;;;5.40;;
56039;SDS011;43937;41.366;2.072;2023-07-09T01:49:04;15.70;;;5.88;;
56039;SDS011;43937;41.366;2.072;2023-07-09T01:51:32;18.20;;;5.57;;
56039;SDS011;43937;41.366;2.072;2023-07-09T01:53:58;16.60;;;5.55;;
56039;SDS011;43937;41.366;2.072;2023-07-09T01:56:25;13.63;;;5.65;;
56039;SDS011;43937;41.366;2.072;2023-07-09T01:58:50;18.48;;;6.10;;
56039;SDS011;43937;41.366;2.072;2023-07-09T02:01:16;13.07;;;5.18;;
56039;SDS011;43937;41.366;2.072;2023-07-09T02:03:44;18.15;;;5.22;;
56039;SDS011;43937;41.366;2.072;2023-07-09T02:06:10;18.00;;;5.15;;
56039;SDS011;43937;41.366;2.072;2023-07-09T02:08:36;18.23;;;5.07;;
56039;SDS011;43937;41.366;2.072;2023-07-09T02:11:02;12.20;;;5.40;;
56039;SDS011;43937;41.366;2.072;2023-07-09T02:13:28;16.95;;;5.50;;
56039;SDS011;43937;41.366;2.072;2023-07-09T02:15:53;12.75;;;5.03;;
56039;SDS011;43937;41.366;2.072;2023-07-09T02:18:19;13.23;;;4.82;;
56039;SDS011;43937;41.366;2.072;2023-07-09T02:20:47;16.08;;;5.18;;
56039;SDS011;43937;41.366;2.072;2023-07-09T02:23:13;14.95;;;4.93;;
56039;SDS011;43937;41.366;2.072;2023-07-09T02:25:38;13.95;;;5.07;;
56039;SDS011;43937;41.366;2.072;2023-07-09T02:28:04;11.80;;;4.40;;
56039;SDS011;43937;41.366;2.072;2023-07-09T02:30:29;13.05;;;4.68;;
56039;SDS011;43937;41.366;2.072;2023-07-09T02:32:55;17.90;;;5.00;;
56039;SDS011;43937;41.366;2.072;2023-07-09T02:35:21;13.85;;;5.38;;
56039;SDS011;43937;41.366;2.072;2023-07-09T02:37:46;13.20;;;4.82;;
56039;SDS011;43937;41.366;2.072;2023-07-09T02:40:12;12.63;;;4.50;;
56039;SDS011;43937;41.366;2.072;2023-07-09T02:42:38;15.77;;;5.25;;
56039;SDS011;43937;41.366;2.072;2023-07-09T02:45:04;12.02;;;5.32;;
56039;SDS011;43937;41.366;2.072;2023-07-09T02:47:30;16.98;;;5.20;;
56039;SDS011;43937;41.366;2.072;2023-07-09T02:49:55;13.60;;;5.30;;
56039;SDS011;43937;41.366;2.072;2023-07-09T02:52:21;13.07;;;5.57;;
56039;SDS011;43937;41.366;2.072;2023-07-09T02:54:47;14.70;;;5.80;;
56039;SDS011;43937;41.366;2.072;2023-07-09T02:57:12;14.07;;;5.60;;
56039;SDS011;43937;41.366;2.072;2023-07-09T02:59:38;13.75;;;5.00;;
56039;SDS011;43937;41.366;2.072;2023-07-09T03:02:03;14.70;;;4.60;;
56039;SDS011;43937;41.366;2.072;2023-07-09T03:04:29;10.43;;;4.68;;
56039;SDS011;43937;41.366;2.072;2023-07-09T03:06:56;12.85;;;5.35;;
56039;SDS011;43937;41.366;2.072;2023-07-09T03:09:21;11.68;;;4.95;;
56039;SDS011;43937;41.366;2.072;2023-07-09T03:13:49;15.65;;;5.05;;
56039;SDS011;43937;41.366;2.072;2023-07-09T03:16:15;10.70;;;5.25;;
56039;SDS011;43937;41.366;2.072;2023-07-09T03:18:41;11.32;;;4.80;;
56039;SDS011;43937;41.366;2.072;2023-07-09T03:21:07;12.57;;;5.18;;
56039;SDS011;43937;41.366;2.072;2023-07-09T03:23:32;14.75;;;4.95;;
56039;SDS011;43937;41.366;2.072;2023-07-09T03:26:22;10.95;;;4.85;;
56039;SDS011;43937;41.366;2.072;2023-07-09T03:28:48;12.18;;;4.57;;
56039;SDS011;43937;41.366;2.072;2023-07-09T03:31:14;8.98;;;4.50;;
56039;SDS011;43937;41.366;2.072;2023-07-09T03:33:39;12.27;;;5.00;;
56039;SDS011;43937;41.366;2.072;2023-07-09T03:36:05;11.40;;;4.93;;
56039;SDS011;43937;41.366;2.072;2023-07-09T03:38:31;14.93;;;5.32;;
56039;SDS011;43937;41.366;2.072;2023-07-09T03:40:57;13.15;;;4.97;;
56039;SDS011;43937;41.366;2.072;2023-07-09T03:43:22;10.15;;;4.50;;
56039;SDS011;43937;41.366;2.072;2023-07-09T03:46:41;11.35;;;4.82;;
56039;SDS011;43937;41.366;2.072;2023-07-09T03:49:06;10.68;;;4.57;;
56039;SDS011;43937;41.366;2.072;2023-07-09T03:51:32;17.25;;;5.03;;
56039;SDS011;43937;41.366;2.072;2023-07-09T03:53:57;9.95;;;4.30;;
56039;SDS011;43937;41.366;2.072;2023-07-09T03:56:23;11.25;;;4.47;;
56039;SDS011;43937;41.366;2.072;2023-07-09T03:58:48;13.63;;;4.72;;
56039;SDS011;43937;41.366;2.072;2023-07-09T04:01:14;11.13;;;5.28;;
56039;SDS011;43937;41.366;2.072;2023-07-09T04:03:41;18.13;;;4.80;;
56039;SDS011;43937;41.366;2.072;2023-07-09T04:06:06;12.40;;;4.90;;
56039;SDS011;43937;41.366;2.072;2023-07-09T04:08:47;10.20;;;4.28;;
56039;SDS011;43937;41.366;2.072;2023-07-09T04:11:13;15.18;;;4.80;;
56039;SDS011;43937;41.366;2.072;2023-07-09T04:13:38;18.10;;;5.10;;
56039;SDS011;43937;41.366;2.072;2023-07-09T04:16:04;14.90;;;4.88;;
56039;SDS011;43937;41.366;2.072;2023-07-09T04:18:29;11.25;;;5.00;;
56039;SDS011;43937;41.366;2.072;2023-07-09T04:20:55;19.35;;;5.63;;
56039;SDS011;43937;41.366;2.072;2023-07-09T04:23:20;12.98;;;4.57;;
56039;SDS011;43937;41.366;2.072;2023-07-09T04:25:46;11.23;;;4.88;;
56039;SDS011;43937;41.366;2.072;2023-07-09T04:28:11;12.07;;;5.57;;
56039;SDS011;43937;41.366;2.072;2023-07-09T04:30:38;13.90;;;4.80;;
56039;SDS011;43937;41.366;2.072;2023-07-09T04:33:03;12.88;;;5.30;;
56039;SDS011;43937;41.366;2.072;2023-07-09T04:35:29;12.32;;;5.50;;
56039;SDS011;43937;41.366;2.072;2023-07-09T04:37:54;15.73;;;5.22;;
56039;SDS011;43937;41.366;2.072;2023-07-09T04:40:20;14.27;;;4.97;;
56039;SDS011;43937;41.366;2.072;2023-07-09T04:42:45;16.67;;;5.22;;
56039;SDS011;43937;41.366;2.072;2023-07-09T04:45:11;8.38;;;4.55;;
56039;SDS011;43937;41.366;2.072;2023-07-09T04:47:37;15.23;;;5.93;;
56039;SDS011;43937;41.366;2.072;2023-07-09T04:50:04;11.45;;;5.07;;
56039;SDS011;43937;41.366;2.072;2023-07-09T04:53:43;14.27;;;5.55;;
56039;SDS011;43937;41.366;2.072;2023-07-09T04:56:09;13.57;;;5.43;;
56039;SDS011;43937;41.366;2.072;2023-07-09T04:58:34;15.98;;;5.38;;
56039;SDS011;43937;41.366;2.072;2023-07-09T05:01:00;13.38;;;5.60;;
56039;SDS011;43937;41.366;2.072;2023-07-09T05:03:26;13.77;;;5.35;;
56039;SDS011;43937;41.366;2.072;2023-07-09T05:05:52;14.35;;;5.38;;
56039;SDS011;43937;41.366;2.072;2023-07-09T05:08:18;11.02;;;5.47;;
56039;SDS011;43937;41.366;2.072;2023-07-09T05:10:48;15.43;;;5.30;;
56039;SDS011;43937;41.366;2.072;2023-07-09T05:13:15;14.75;;;5.75;;
56039;SDS011;43937;41.366;2.072;2023-07-09T05:15:42;15.60;;;6.95;;
56039;SDS011;43937;41.366;2.072;2023-07-09T05:18:10;11.65;;;6.80;;
56039;SDS011;43937;41.366;2.072;2023-07-09T05:20:36;21.27;;;7.40;;
56039;SDS011;43937;41.366;2.072;2023-07-09T05:23:01;16.30;;;7.38;;
56039;SDS011;43937;41.366;2.072;2023-07-09T05:25:27;21.02;;;7.43;;
56039;SDS011;43937;41.366;2.072;2023-07-09T05:27:52;17.23;;;7.15;;
56039;SDS011;43937;41.366;2.072;2023-07-09T05:30:18;15.00;;;6.88;;
56039;SDS011;43937;41.366;2.072;2023-07-09T05:32:44;17.45;;;6.72;;
56039;SDS011;43937;41.366;2.072;2023-07-09T05:35:10;14.88;;;6.72;;
56039;SDS011;43937;41.366;2.072;2023-07-09T05:37:36;16.85;;;6.55;;
56039;SDS011;43937;41.366;2.072;2023-07-09T05:40:02;12.60;;;5.85;;
56039;SDS011;43937;41.366;2.072;2023-07-09T05:42:29;16.50;;;6.88;;
56039;SDS011;43937;41.366;2.072;2023-07-09T05:44:55;14.02;;;5.82;;
56039;SDS011;43937;41.366;2.072;2023-07-09T05:47:20;14.35;;;5.85;;
56039;SDS011;43937;41.366;2.072;2023-07-09T05:49:45;13.70;;;5.40;;
56039;SDS011;43937;41.366;2.072;2023-07-09T05:52:14;15.65;;;5.80;;
56039;SDS011;43937;41.366;2.072;2023-07-09T05:54:40;15.57;;;6.35;;
56039;SDS011;43937;41.366;2.072;2023-07-09T05:57:05;11.20;;;5.72;;
56039;SDS011;43937;41.366;2.072;2023-07-09T05:59:34;14.77;;;5.03;;
56039;SDS011;43937;41.366;2.072;2023-07-09T06:02:03;16.45;;;5.30;;
56039;SDS011;43937;41.366;2.072;2023-07-09T06:04:29;14.85;;;4.55;;
56039;SDS011;43937;41.366;2.072;2023-07-09T06:06:58;18.38;;;5.30;;
56039;SDS011;43937;41.366;2.072;2023-07-09T06:09:23;12.40;;;4.85;;
56039;SDS011;43937;41.366;2.072;2023-07-09T06:11:49;11.63;;;5.15;;
56039;SDS011;43937;41.366;2.072;2023-07-09T06:14:16;12.38;;;5.55;;
56039;SDS011;43937;41.366;2.072;2023-07-09T06:16:42;17.42;;;6.57;;
56039;SDS011;43937;41.366;2.072;2023-07-09T06:19:08;14.95;;;5.00;;
56039;SDS011;43937;41.366;2.072;2023-07-09T06:21:34;13.20;;;5.15;;
56039;SDS011;43937;41.366;2.072;2023-07-09T06:23:59;8.85;;;5.13;;
56039;SDS011;43937;41.366;2.072;2023-07-09T06:26:25;11.27;;;5.18;;
56039;SDS011;43937;41.366;2.072;2023-07-09T06:29:08;11.30;;;4.60;;
56039;SDS011;43937;41.366;2.072;2023-07-09T06:31:37;11.05;;;4.70;;
56039;SDS011;43937;41.366;2.072;2023-07-09T06:34:03;17.85;;;5.28;;
56039;SDS011;43937;41.366;2.072;2023-07-09T06:36:29;13.38;;;5.10;;
56039;SDS011;43937;41.366;2.072;2023-07-09T06:38:54;17.55;;;9.07;;
56039;SDS011;43937;41.366;2.072;2023-07-09T06:41:49;11.30;;;5.00;;
56039;SDS011;43937;41.366;2.072;2023-07-09T06:44:14;15.30;;;5.68;;
56039;SDS011;43937;41.366;2.072;2023-07-09T06:46:40;15.32;;;5.88;;
56039;SDS011;43937;41.366;2.072;2023-07-09T06:49:35;13.90;;;5.85;;
56039;SDS011;43937;41.366;2.072;2023-07-09T06:52:01;11.85;;;5.13;;
56039;SDS011;43937;41.366;2.072;2023-07-09T06:54:26;11.18;;;5.35;;
56039;SDS011;43937;41.366;2.072;2023-07-09T06:56:52;16.33;;;5.65;;
56039;SDS011;43937;41.366;2.072;2023-07-09T06:59:17;14.82;;;5.28;;
56039;SDS011;43937;41.366;2.072;2023-07-09T07:01:42;13.38;;;5.90;;
56039;SDS011;43937;41.366;2.072;2023-07-09T07:04:08;14.27;;;5.82;;
56039;SDS011;43937;41.366;2.072;2023-07-09T07:06:33;11.95;;;4.97;;
56039;SDS011;43937;41.366;2.072;2023-07-09T07:08:59;10.55;;;4.65;;
56039;SDS011;43937;41.366;2.072;2023-07-09T07:11:25;17.88;;;6.03;;
56039;SDS011;43937;41.366;2.072;2023-07-09T07:13:55;17.10;;;15.30;;
56039;SDS011;43937;41.366;2.072;2023-07-09T07:16:20;16.05;;;5.38;;
56039;SDS011;43937;41.366;2.072;2023-07-09T07:18:45;10.40;;;5.47;;
56039;SDS011;43937;41.366;2.072;2023-07-09T07:21:11;15.30;;;6.40;;
56039;SDS011;43937;41.366;2.072;2023-07-09T07:23:36;20.77;;;6.18;;
56039;SDS011;43937;41.366;2.072;2023-07-09T07:26:02;15.48;;;5.85;;
56039;SDS011;43937;41.366;2.072;2023-07-09T07:28:29;15.95;;;6.10;;
56039;SDS011;43937;41.366;2.072;2023-07-09T07:31:04;15.27;;;6.03;;
56039;SDS011;43937;41.366;2.072;2023-07-09T07:33:34;15.70;;;6.30;;
56039;SDS011;43937;41.366;2.072;2023-07-09T07:36:00;13.45;;;6.13;;
56039;SDS011;43937;41.366;2.072;2023-07-09T07:38:28;16.00;;;6.18;;
56039;SDS011;43937;41.366;2.072;2023-07-09T07:40:54;13.73;;;6.20;;
56039;SDS011;43937;41.366;2.072;2023-07-09T07:43:19;13.77;;;5.80;;
56039;SDS011;43937;41.366;2.072;2023-07-09T07:45:44;16.90;;;6.22;;
56039;SDS011;43937;41.366;2.072;2023-07-09T07:48:10;18.83;;;6.25;;
56039;SDS011;43937;41.366;2.072;2023-07-09T07:50:36;10.30;;;5.30;;
56039;SDS011;43937;41.366;2.072;2023-07-09T07:53:02;10.02;;;5.03;;
56039;SDS011;43937;41.366;2.072;2023-07-09T07:55:28;10.93;;;4.20;;
56039;SDS011;43937;41.366;2.072;2023-07-09T07:57:53;13.75;;;4.28;;
56039;SDS011;43937;41.366;2.072;2023-07-09T08:00:19;10.38;;;4.30;;
56039;SDS011;43937;41.366;2.072;2023-07-09T08:02:44;11.10;;;4.35;;
56039;SDS011;43937;41.366;2.072;2023-07-09T08:05:10;11.43;;;4.50;;
56039;SDS011;43937;41.366;2.072;2023-07-09T08:07:35;11.63;;;4.35;;
56039;SDS011;43937;41.366;2.072;2023-07-09T08:10:01;10.70;;;4.30;;
56039;SDS011;43937;41.366;2.072;2023-07-09T08:12:26;12.25;;;4.47;;
56039;SDS011;43937;41.366;2.072;2023-07-09T08:14:52;19.45;;;5.03;;
56039;SDS011;43937;41.366;2.072;2023-07-09T08:17:17;7.47;;;3.53;;
56039;SDS011;43937;41.366;2.072;2023-07-09T08:19:43;12.65;;;4.13;;
56039;SDS011;43937;41.366;2.072;2023-07-09T08:22:11;13.52;;;4.28;;
56039;SDS011;43937;41.366;2.072;2023-07-09T08:24:36;9.98;;;4.07;;
56039;SDS011;43937;41.366;2.072;2023-07-09T08:27:02;13.68;;;6.35;;
56039;SDS011;43937;41.366;2.072;2023-07-09T08:29:28;14.25;;;4.60;;
56039;SDS011;43937;41.366;2.072;2023-07-09T08:31:53;10.15;;;5.40;;
56039;SDS011;43937;41.366;2.072;2023-07-09T08:34:19;13.00;;;3.97;;
56039;SDS011;43937;41.366;2.072;2023-07-09T08:36:44;11.27;;;6.00;;
56039;SDS011;43937;41.366;2.072;2023-07-09T08:40:02;14.75;;;4.38;;
56039;SDS011;43937;41.366;2.072;2023-07-09T08:42:51;13.48;;;5.57;;
56039;SDS011;43937;41.366;2.072;2023-07-09T08:48:15;11.52;;;5.10;;
56039;SDS011;43937;41.366;2.072;2023-07-09T08:50:43;13.60;;;4.40;;
56039;SDS011;43937;41.366;2.072;2023-07-09T08:53:21;12.60;;;4.63;;
56039;SDS011;43937;41.366;2.072;2023-07-09T08:55:54;13.60;;;5.65;;
56039;SDS011;43937;41.366;2.072;2023-07-09T08:58:30;13.10;;;5.82;;
56039;SDS011;43937;41.366;2.072;2023-07-09T09:00:57;12.70;;;5.00;;
56039;SDS011;43937;41.366;2.072;2023-07-09T09:03:35;13.27;;;5.05;;
56039;SDS011;43937;41.366;2.072;2023-07-09T09:06:22;12.68;;;5.60;;
56039;SDS011;43937;41.366;2.072;2023-07-09T09:08:58;14.95;;;4.97;;
56039;SDS011;43937;41.366;2.072;2023-07-09T09:11:42;11.40;;;4.55;;
56039;SDS011;43937;41.366;2.072;2023-07-09T09:14:35;13.50;;;4.60;;
56039;SDS011;43937;41.366;2.072;2023-07-09T09:17:11;11.60;;;4.95;;
56039;SDS011;43937;41.366;2.072;2023-07-09T09:19:46;12.70;;;4.28;;
56039;SDS011;43937;41.366;2.072;2023-07-09T09:22:21;16.33;;;4.70;;
56039;SDS011;43937;41.366;2.072;2023-07-09T09:24:56;13.63;;;4.38;;
56039;SDS011;43937;41.366;2.072;2023-07-09T09:27:28;11.45;;;4.10;;
56039;SDS011;43937;41.366;2.072;2023-07-09T09:29:54;10.15;;;3.78;;
56039;SDS011;43937;41.366;2.072;2023-07-09T09:34:44;12.18;;;3.50;;
56039;SDS011;43937;41.366;2.072;2023-07-09T09:37:11;12.43;;;3.63;;
56039;SDS011;43937;41.366;2.072;2023-07-09T09:39:37;9.30;;;3.35;;
56039;SDS011;43937;41.366;2.072;2023-07-09T09:42:07;10.02;;;3.30;;
56039;SDS011;43937;41.366;2.072;2023-07-09T09:44:36;11.13;;;3.47;;
56039;SDS011;43937;41.366;2.072;2023-07-09T09:47:01;11.75;;;3.72;;
56039;SDS011;43937;41.366;2.072;2023-07-09T09:49:28;11.48;;;4.30;;
56039;SDS011;43937;41.366;2.072;2023-07-09T09:51:53;10.85;;;3.60;;
56039;SDS011;43937;41.366;2.072;2023-07-09T09:54:24;9.98;;;3.55;;
56039;SDS011;43937;41.366;2.072;2023-07-09T09:59:25;14.73;;;4.85;;
56039;SDS011;43937;41.366;2.072;2023-07-09T10:01:59;9.80;;;3.60;;
56039;SDS011;43937;41.366;2.072;2023-07-09T10:04:27;11.18;;;3.38;;
56039;SDS011;43937;41.366;2.072;2023-07-09T10:06:55;10.93;;;3.50;;
56039;SDS011;43937;41.366;2.072;2023-07-09T10:20:44;10.75;;;3.78;;
56039;SDS011;43937;41.366;2.072;2023-07-09T10:23:19;11.68;;;3.80;;
56039;SDS011;43937;41.366;2.072;2023-07-09T10:25:58;15.25;;;3.70;;
56039;SDS011;43937;41.366;2.072;2023-07-09T10:28:52;10.45;;;3.50;;
56039;SDS011;43937;41.366;2.072;2023-07-09T10:34:34;11.60;;;3.22;;
56039;SDS011;43937;41.366;2.072;2023-07-09T10:40:41;10.00;;;3.65;;
56039;SDS011;43937;41.366;2.072;2023-07-09T10:43:13;11.40;;;3.50;;
56039;SDS011;43937;41.366;2.072;2023-07-09T10:45:47;13.60;;;3.80;;
56039;SDS011;43937;41.366;2.072;2023-07-09T10:48:24;12.23;;;3.58;;
56039;SDS011;43937;41.366;2.072;2023-07-09T10:50:58;12.80;;;4.38;;
56039;SDS011;43937;41.366;2.072;2023-07-09T10:56:11;11.25;;;3.88;;
56039;SDS011;43937;41.366;2.072;2023-07-09T10:59:41;17.67;;;4.03;;
56039;SDS011;43937;41.366;2.072;2023-07-09T11:01:55;10.30;;;3.85;;
56039;SDS011;43937;41.366;2.072;2023-07-09T11:06:57;14.18;;;3.78;;
56039;SDS011;43937;41.366;2.072;2023-07-09T11:17:45;10.52;;;3.55;;
56039;SDS011;43937;41.366;2.072;2023-07-09T11:20:19;10.23;;;3.25;;
56039;SDS011;43937;41.366;2.072;2023-07-09T11:23:37;12.90;;;3.33;;
56039;SDS011;43937;41.366;2.072;2023-07-09T11:25:59;10.38;;;3.20;;
56039;SDS011;43937;41.366;2.072;2023-07-09T11:28:37;10.52;;;3.20;;
56039;SDS011;43937;41.366;2.072;2023-07-09T11:31:46;11.77;;;3.58;;
56039;SDS011;43937;41.366;2.072;2023-07-09T11:34:03;12.10;;;3.50;;
56039;SDS011;43937;41.366;2.072;2023-07-09T11:36:34;11.48;;;3.63;;
56039;SDS011;43937;41.366;2.072;2023-07-09T11:41:54;11.88;;;4.53;;
56039;SDS011;43937;41.366;2.072;2023-07-09T11:44:22;11.15;;;4.38;;
56039;SDS011;43937;41.366;2.072;2023-07-09T11:50:00;9.93;;;4.07;;
56039;SDS011;43937;41.366;2.072;2023-07-09T11:52:30;10.65;;;4.75;;
56039;SDS011;43937;41.366;2.072;2023-07-09T11:57:48;11.15;;;3.90;;
56039;SDS011;43937;41.366;2.072;2023-07-09T12:00:18;9.63;;;4.00;;
56039;SDS011;43937;41.366;2.072;2023-07-09T12:02:43;11.80;;;4.57;;
56039;SDS011;43937;41.366;2.072;2023-07-09T12:05:09;9.98;;;3.63;;
56039;SDS011;43937;41.366;2.072;2023-07-09T12:07:35;9.13;;;3.50;;
56039;SDS011;43937;41.366;2.072;2023-07-09T12:10:03;9.05;;;3.50;;
56039;SDS011;43937;41.366;2.072;2023-07-09T12:12:41;10.70;;;4.07;;
56039;SDS011;43937;41.366;2.072;2023-07-09T12:15:40;12.15;;;3.25;;
56039;SDS011;43937;41.366;2.072;2023-07-09T12:18:00;12.75;;;4.00;;
56039;SDS011;43937;41.366;2.072;2023-07-09T12:20:35;10.57;;;4.25;;
56039;SDS011;43937;41.366;2.072;2023-07-09T12:23:19;9.65;;;3.30;;
56039;SDS011;43937;41.366;2.072;2023-07-09T12:25:49;16.98;;;3.95;;
56039;SDS011;43937;41.366;2.072;2023-07-09T12:28:16;9.70;;;3.63;;
56039;SDS011;43937;41.366;2.072;2023-07-09T12:30:49;8.85;;;4.18;;
56039;SDS011;43937;41.366;2.072;2023-07-09T12:33:17;12.07;;;3.83;;
56039;SDS011;43937;41.366;2.072;2023-07-09T12:35:44;13.52;;;3.63;;
56039;SDS011;43937;41.366;2.072;2023-07-09T12:38:19;9.82;;;3.60;;
56039;SDS011;43937;41.366;2.072;2023-07-09T12:40:46;8.05;;;3.58;;
56039;SDS011;43937;41.366;2.072;2023-07-09T12:43:13;9.25;;;3.40;;
56039;SDS011;43937;41.366;2.072;2023-07-09T12:45:50;7.80;;;3.38;;
56039;SDS011;43937;41.366;2.072;2023-07-09T12:48:16;7.50;;;3.78;;
56039;SDS011;43937;41.366;2.072;2023-07-09T12:50:50;12.40;;;4.10;;
56039;SDS011;43937;41.366;2.072;2023-07-09T12:53:18;7.32;;;3.15;;
56039;SDS011;43937;41.366;2.072;2023-07-09T12:55:48;9.47;;;3.63;;
56039;SDS011;43937;41.366;2.072;2023-07-09T12:58:26;11.25;;;3.75;;
56039;SDS011;43937;41.366;2.072;2023-07-09T13:00:55;12.98;;;3.90;;
56039;SDS011;43937;41.366;2.072;2023-07-09T13:03:25;12.70;;;4.95;;
56039;SDS011;43937;41.366;2.072;2023-07-09T13:05:56;10.80;;;3.85;;
56039;SDS011;43937;41.366;2.072;2023-07-09T13:08:27;8.23;;;3.60;;
56039;SDS011;43937;41.366;2.072;2023-07-09T13:10:55;9.55;;;3.60;;
56039;SDS011;43937;41.366;2.072;2023-07-09T13:13:22;13.25;;;3.83;;
56039;SDS011;43937;41.366;2.072;2023-07-09T13:18:26;10.27;;;3.72;;
56039;SDS011;43937;41.366;2.072;2023-07-09T13:20:53;11.48;;;4.28;;
56039;SDS011;43937;41.366;2.072;2023-07-09T13:23:23;9.95;;;4.13;;
56039;SDS011;43937;41.366;2.072;2023-07-09T13:25:50;9.48;;;3.53;;
56039;SDS011;43937;41.366;2.072;2023-07-09T13:30:52;9.73;;;3.88;;
56039;SDS011;43937;41.366;2.072;2023-07-09T13:33:20;11.73;;;4.15;;
56039;SDS011;43937;41.366;2.072;2023-07-09T13:35:47;8.55;;;3.90;;
56039;SDS011;43937;41.366;2.072;2023-07-09T13:38:14;10.32;;;3.65;;
56039;SDS011;43937;41.366;2.072;2023-07-09T13:40:45;16.98;;;4.18;;
56039;SDS011;43937;41.366;2.072;2023-07-09T13:43:34;9.40;;;4.30;;
56039;SDS011;43937;41.366;2.072;2023-07-09T13:46:00;9.63;;;4.07;;
56039;SDS011;43937;41.366;2.072;2023-07-09T13:48:28;8.80;;;4.18;;
56039;SDS011;43937;41.366;2.072;2023-07-09T13:50:55;8.75;;;3.63;;
56039;SDS011;43937;41.366;2.072;2023-07-09T13:53:23;9.32;;;3.45;;
56039;SDS011;43937;41.366;2.072;2023-07-09T13:55:54;11.38;;;4.22;;
56039;SDS011;43937;41.366;2.072;2023-07-09T13:58:21;12.73;;;3.97;;
56039;SDS011;43937;41.366;2.072;2023-07-09T14:00:49;8.05;;;3.78;;
56039;SDS011;43937;41.366;2.072;2023-07-09T14:03:18;15.65;;;4.07;;
56039;SDS011;43937;41.366;2.072;2023-07-09T14:05:46;14.10;;;4.28;;
56039;SDS011;43937;41.366;2.072;2023-07-09T14:08:11;12.60;;;4.70;;
56039;SDS011;43937;41.366;2.072;2023-07-09T14:10:37;11.77;;;3.97;;
56039;SDS011;43937;41.366;2.072;2023-07-09T14:13:03;11.00;;;4.05;;
56039;SDS011;43937;41.366;2.072;2023-07-09T14:15:29;13.75;;;3.65;;
56039;SDS011;43937;41.366;2.072;2023-07-09T14:17:55;14.65;;;4.43;;
56039;SDS011;43937;41.366;2.072;2023-07-09T14:20:23;15.60;;;3.60;;
56039;SDS011;43937;41.366;2.072;2023-07-09T14:22:49;14.00;;;3.80;;
56039;SDS011;43937;41.366;2.072;2023-07-09T14:25:23;9.13;;;3.97;;
56039;SDS011;43937;41.366;2.072;2023-07-09T14:27:51;8.48;;;3.95;;
56039;SDS011;43937;41.366;2.072;2023-07-09T14:30:19;16.02;;;4.10;;
56039;SDS011;43937;41.366;2.072;2023-07-09T14:32:47;11.48;;;4.05;;
56039;SDS011;43937;41.366;2.072;2023-07-09T14:35:16;12.32;;;3.90;;
56039;SDS011;43937;41.366;2.072;2023-07-09T14:37:44;9.27;;;4.07;;
56039;SDS011;43937;41.366;2.072;2023-07-09T14:40:11;9.93;;;3.80;;
56039;SDS011;43937;41.366;2.072;2023-07-09T14:42:38;13.85;;;4.18;;
56039;SDS011;43937;41.366;2.072;2023-07-09T14:45:24;10.60;;;3.85;;
56039;SDS011;43937;41.366;2.072;2023-07-09T14:47:51;10.82;;;4.00;;
56039;SDS011;43937;41.366;2.072;2023-07-09T14:50:18;11.10;;;4.22;;
56039;SDS011;43937;41.366;2.072;2023-07-09T14:52:45;19.75;;;4.55;;
56039;SDS011;43937;41.366;2.072;2023-07-09T14:55:18;12.48;;;3.92;;
56039;SDS011;43937;41.366;2.072;2023-07-09T14:57:47;14.90;;;4.57;;
56039;SDS011;43937;41.366;2.072;2023-07-09T15:00:14;15.32;;;4.07;;
56039;SDS011;43937;41.366;2.072;2023-07-09T15:02:42;10.40;;;3.63;;
56039;SDS011;43937;41.366;2.072;2023-07-09T15:05:13;9.95;;;3.28;;
56039;SDS011;43937;41.366;2.072;2023-07-09T15:07:45;11.00;;;4.10;;
56039;SDS011;43937;41.366;2.072;2023-07-09T15:10:13;11.30;;;4.13;;
56039;SDS011;43937;41.366;2.072;2023-07-09T15:12:46;12.93;;;3.75;;
56039;SDS011;43937;41.366;2.072;2023-07-09T15:15:17;12.68;;;4.13;;
56039;SDS011;43937;41.366;2.072;2023-07-09T15:17:49;14.75;;;3.70;;
56039;SDS011;43937;41.366;2.072;2023-07-09T15:20:16;13.82;;;4.30;;
56039;SDS011;43937;41.366;2.072;2023-07-09T15:22:48;15.70;;;3.78;;
56039;SDS011;43937;41.366;2.072;2023-07-09T15:25:17;11.82;;;4.32;;
56039;SDS011;43937;41.366;2.072;2023-07-09T15:27:46;12.63;;;4.20;;
56039;SDS011;43937;41.366;2.072;2023-07-09T15:30:12;10.65;;;3.80;;
56039;SDS011;43937;41.366;2.072;2023-07-09T15:32:39;8.85;;;3.97;;
56039;SDS011;43937;41.366;2.072;2023-07-09T15:35:05;13.32;;;3.83;;
56039;SDS011;43937;41.366;2.072;2023-07-09T15:37:30;15.25;;;4.43;;
56039;SDS011;43937;41.366;2.072;2023-07-09T15:39:56;11.63;;;4.35;;
56039;SDS011;43937;41.366;2.072;2023-07-09T15:42:21;12.45;;;3.90;;
56039;SDS011;43937;41.366;2.072;2023-07-09T15:44:49;12.00;;;3.88;;
56039;SDS011;43937;41.366;2.072;2023-07-09T15:47:18;10.10;;;3.35;;
56039;SDS011;43937;41.366;2.072;2023-07-09T15:49:46;11.55;;;3.80;;
56039;SDS011;43937;41.366;2.072;2023-07-09T15:52:11;11.88;;;3.75;;